Time;durP1;ratioP1;P1;durP2;ratioP2;P2;SDS_P1;SDS_P2;PMS_P1;PMS_P2;Temp;Humidity;BMP_temperature;BMP_pressure;BME280_temperature;BME280_humidity;BME280_pressure;Samples;Min_cycle;Max_cycle;Signal;HPM_P1;HPM_P2
2021/10/06 00:02:03;;;;;;;;;;;11.10;99.90;;;;;;8392751;28;19916;-63
2021/10/06 00:06:03;;;;;;;;;;;11.00;99.90;;;;;;8392262;28;20013;-63
2021/10/06 00:10:05;;;;;;;;;;;11.10;99.90;;;;;;8390999;28;19943;-63
2021/10/06 00:14:06;;;;;;;;;;;11.10;99.90;;;;;;8390666;28;19915;-63
2021/10/06 00:18:07;;;;;;;;;;;11.10;99.90;;;;;;8391894;28;19933;-63
2021/10/06 00:22:07;;;;;;;;;;;11.00;99.90;;;;;;8392240;28;19924;-63
2021/10/06 00:26:08;;;;;;;;;;;11.10;99.90;;;;;;8392194;28;19909;-63
2021/10/06 00:30:09;;;;;;;;;;;11.10;99.90;;;;;;8390890;28;20481;-63
2021/10/06 00:34:09;;;;;;;;;;;11.10;99.90;;;;;;8392107;28;20337;-63
2021/10/06 00:38:10;;;;;;;;;;;11.10;99.90;;;;;;8391823;28;19909;-63
2021/10/06 00:42:10;;;;;;;;;;;11.10;99.90;;;;;;8391892;28;20002;-63
2021/10/06 00:46:10;;;;;;;;;;;11.10;99.90;;;;;;8397543;28;20271;-63
2021/10/06 00:50:11;;;;;;;;;;;11.00;99.90;;;;;;8402678;28;19919;-63
2021/10/06 00:54:11;;;;;;;;;;;11.00;99.90;;;;;;8402328;28;19909;-63
2021/10/06 00:58:12;;;;;;;;;;;;;;;;;;8401286;28;20003;-63
2021/10/06 01:02:13;;;;;;;;;;;10.80;99.90;;;;;;8402772;28;19914;-63
2021/10/06 01:06:13;;;;;;;;;;;10.70;99.90;;;;;;8402218;28;19908;-63
2021/10/06 01:10:14;;;;;;;;;;;10.70;99.90;;;;;;8402295;28;20382;-63
2021/10/06 01:14:15;;;;;;;;;;;10.70;99.90;;;;;;8401989;28;19933;-63
2021/10/06 01:18:16;;;;;;;;;;;10.50;99.90;;;;;;8401918;28;20003;-63
2021/10/06 01:22:17;;;;;;;;;;;10.60;99.90;;;;;;8402311;28;19951;-63
2021/10/06 01:26:18;;;;;;;;;;;10.60;99.90;;;;;;8401983;28;19916;-63
2021/10/06 01:30:19;;;;;;;;;;;10.60;99.90;;;;;;8402102;28;19954;-63
2021/10/06 01:34:20;;;;;;;;;;;10.60;99.90;;;;;;8401973;28;19908;-63
2021/10/06 01:38:20;;;;;;;;;;;10.60;99.90;;;;;;8400538;28;19983;-63
2021/10/06 01:42:21;;;;;;;;;;;10.60;99.90;;;;;;8400760;28;20371;-63
2021/10/06 01:46:21;;;;;;;;;;;10.60;99.90;;;;;;8401699;28;20045;-63
2021/10/06 01:50:23;;;;;;;;;;;10.60;99.90;;;;;;8400408;28;19947;-63
2021/10/06 01:54:24;;;;;;;;;;;10.60;99.90;;;;;;8401477;28;19916;-63
2021/10/06 01:58:24;;;;;;;;;;;10.50;99.90;;;;;;8396300;28;19912;-63
2021/10/06 02:02:25;;;;;;;;;;;10.50;99.90;;;;;;8396444;28;19958;-63
2021/10/06 02:06:25;;;;;;;;;;;10.50;99.90;;;;;;8396157;28;19947;-63
2021/10/06 02:10:26;;;;;;;;;;;10.50;99.90;;;;;;8394996;28;19908;-63
2021/10/06 02:14:26;;;;;;;;;;;10.40;99.90;;;;;;8395462;28;19908;-63
2021/10/06 02:18:27;;;;;;;;;;;10.40;99.90;;;;;;8395823;28;19916;-63
2021/10/06 02:22:27;;;;;;;;;;;10.40;99.90;;;;;;8395740;28;19917;-63
2021/10/06 02:26:28;;;;;;;;;;;10.40;99.90;;;;;;8395309;28;20220;-63
2021/10/06 02:30:28;;;;;;;;;;;10.40;99.90;;;;;;8395403;28;20400;-63
2021/10/06 02:34:29;;;;;;;;;;;10.30;99.90;;;;;;8395019;28;20678;-63
2021/10/06 02:38:29;;;;;;;;;;;10.40;99.90;;;;;;8395208;28;19920;-63
2021/10/06 02:42:30;;;;;;;;;;;10.40;99.90;;;;;;8395332;28;19952;-63
2021/10/06 02:46:31;;;;;;;;;;;10.30;99.90;;;;;;8395034;28;19912;-63
2021/10/06 02:50:31;;;;;;;;;;;10.40;99.90;;;;;;8394659;28;19927;-63
2021/10/06 02:54:32;;;;;;;;;;;10.30;99.90;;;;;;8394541;28;19996;-63
2021/10/06 02:58:32;;;;;;;;;;;10.30;99.90;;;;;;8393615;28;19958;-63
2021/10/06 03:02:33;;;;;;;;;;;10.30;99.90;;;;;;8395180;28;20378;-63
2021/10/06 03:06:34;;;;;;;;;;;10.30;99.90;;;;;;8381802;28;20554;-63
2021/10/06 03:10:34;;;;;;;;;;;10.20;99.90;;;;;;8366281;28;20390;-63
2021/10/06 03:14:35;;;;;;;;;;;10.30;99.90;;;;;;8374467;28;20582;-63
2021/10/06 03:18:35;;;;;;;;;;;10.20;99.90;;;;;;8376076;28;19944;-63
2021/10/06 03:22:36;;;;;;;;;;;10.10;99.90;;;;;;8377355;28;19921;-64
2021/10/06 03:26:36;;;;;;;;;;;10.10;99.90;;;;;;8371362;28;19956;-63
2021/10/06 03:30:37;;;;;;;;;;;10.10;99.90;;;;;;8359291;28;20290;-63
2021/10/06 03:34:38;;;;;;;;;;;10.10;99.90;;;;;;8360041;28;19908;-63
2021/10/06 03:38:38;;;;;;;;;;;10.10;99.90;;;;;;8370257;28;19919;-63
2021/10/06 03:42:39;;;;;;;;;;;10.10;99.90;;;;;;8366066;28;19916;-63
2021/10/06 03:46:39;;;;;;;;;;;10.00;99.90;;;;;;8359936;28;19916;-63
2021/10/06 03:50:40;;;;;;;;;;;10.00;99.90;;;;;;8362186;28;19912;-64
2021/10/06 03:54:40;;;;;;;;;;;10.00;99.90;;;;;;8384325;28;19920;-63
2021/10/06 03:58:41;;;;;;;;;;;10.00;99.90;;;;;;8390922;28;19912;-63
2021/10/06 04:02:41;;;;;;;;;;;9.90;99.90;;;;;;8389255;28;19923;-66
2021/10/06 04:06:41;;;;;;;;;;;9.90;99.90;;;;;;8388672;28;20283;-66
2021/10/06 04:10:42;;;;;;;;;;;9.90;99.90;;;;;;8389206;28;19993;-66
2021/10/06 04:14:42;;;;;;;;;;;10.00;99.90;;;;;;8391988;28;20603;-66
2021/10/06 04:18:43;;;;;;;;;;;9.80;99.90;;;;;;8392325;28;19908;-66
2021/10/06 04:22:43;;;;;;;;;;;9.70;99.90;;;;;;8385500;28;19917;-66
2021/10/06 04:26:44;;;;;;;;;;;9.90;99.90;;;;;;8365221;28;20299;-66
2021/10/06 04:30:44;;;;;;;;;;;9.80;99.90;;;;;;8358858;28;19913;-66
2021/10/06 04:34:45;;;;;;;;;;;9.80;99.90;;;;;;8365844;28;19958;-66
2021/10/06 04:38:45;;;;;;;;;;;9.80;99.90;;;;;;8391366;28;19909;-66
2021/10/06 04:42:46;;;;;;;;;;;9.70;99.90;;;;;;8385490;28;19963;-63
2021/10/06 04:46:47;;;;;;;;;;;9.70;99.90;;;;;;8389654;28;19908;-63
2021/10/06 04:50:48;;;;;;;;;;;9.70;99.90;;;;;;8391017;28;19912;-64
2021/10/06 04:54:48;;;;;;;;;;;9.60;99.90;;;;;;8391289;28;19931;-63
2021/10/06 04:58:48;;;;;;;;;;;9.60;99.90;;;;;;8389869;28;20383;-64
2021/10/06 05:02:49;;;;;;;;;;;9.60;99.90;;;;;;8391391;28;19989;-63
2021/10/06 05:06:49;;;;;;;;;;;9.70;99.90;;;;;;8391051;28;20469;-63
2021/10/06 05:10:50;;;;;;;;;;;9.60;99.90;;;;;;8391271;28;19912;-63
2021/10/06 05:14:50;;;;;;;;;;;9.60;99.90;;;;;;8390935;28;19916;-64
2021/10/06 05:18:51;;;;;;;;;;;9.50;99.90;;;;;;8391065;28;19913;-65
2021/10/06 05:22:52;;;;;;;;;;;9.50;99.90;;;;;;8374423;28;20440;-63
2021/10/06 05:26:54;;;;;;;;;;;9.40;99.90;;;;;;8357305;28;21259;-64
2021/10/06 05:30:55;;;;;;;;;;;9.50;99.90;;;;;;8361957;28;19917;-63
2021/10/06 05:34:56;;;;;;;;;;;9.50;99.90;;;;;;8365640;28;19909;-63
2021/10/06 05:38:56;;;;;;;;;;;9.40;99.90;;;;;;8378418;28;19971;-63
2021/10/06 05:42:57;;;;;;;;;;;9.50;99.90;;;;;;8367460;28;19908;-74
2021/10/06 05:46:57;;;;;;;;;;;9.50;99.90;;;;;;8383821;28;19912;-74
2021/10/06 05:50:58;;;;;;;;;;;9.50;99.90;;;;;;8391153;28;19934;-74
2021/10/06 05:54:58;;;;;;;;;;;9.50;99.90;;;;;;8379199;28;19939;-75
2021/10/06 05:58:59;;;;;;;;;;;9.50;99.90;;;;;;8365855;28;19976;-74
2021/10/06 06:02:59;;;;;;;;;;;9.50;99.90;;;;;;8367245;28;20052;-63
2021/10/06 06:07:00;;;;;;;;;;;9.50;99.90;;;;;;8376444;28;19920;-63
2021/10/06 06:11:00;;;;;;;;;;;9.50;99.90;;;;;;8378743;28;19912;-63
2021/10/06 06:15:01;;;;;;;;;;;9.60;99.90;;;;;;8378394;28;19934;-63
2021/10/06 06:19:02;;;;;;;;;;;9.60;99.90;;;;;;8378577;28;19974;-63
2021/10/06 06:23:03;;;;;;;;;;;9.70;99.90;;;;;;8372036;28;19917;-63
2021/10/06 06:27:05;;;;;;;;;;;9.70;99.90;;;;;;8359825;28;19963;-63
2021/10/06 06:31:06;;;;;;;;;;;9.70;99.90;;;;;;8362666;28;19922;-64
2021/10/06 06:35:07;;;;;;;;;;;9.70;99.90;;;;;;8385156;28;20339;-63
2021/10/06 06:39:08;;;;;;;;;;;9.80;99.90;;;;;;8393745;28;19978;-64
2021/10/06 06:43:09;;;;;;;;;;;9.90;99.90;;;;;;8364834;28;19912;-63
2021/10/06 06:47:09;;;;;;;;;;;10.00;99.90;;;;;;8389596;28;20023;-62
2021/10/06 06:51:10;;;;;;;;;;;10.10;99.90;;;;;;8394949;28;19913;-62
2021/10/06 06:55:11;;;;;;;;;;;10.20;99.90;;;;;;8385255;28;19913;-62
2021/10/06 06:59:11;;;;;;;;;;;10.10;99.90;;;;;;8385307;28;19916;-62
2021/10/06 07:03:12;;;;;;;;;;;10.10;99.90;;;;;;8365637;28;19927;-63
2021/10/06 07:07:14;;;;;;;;;;;10.10;99.90;;;;;;8391307;28;19938;-62
2021/10/06 07:11:15;;;;;;;;;;;10.10;99.90;;;;;;8392267;28;19912;-63
2021/10/06 07:15:16;;;;;;;;;;;10.00;99.90;;;;;;8373310;28;19920;-63
2021/10/06 07:19:16;;;;;;;;;;;10.20;99.90;;;;;;8370291;28;19917;-63
2021/10/06 07:23:17;;;;;;;;;;;10.30;99.90;;;;;;8379125;28;19924;-64
2021/10/06 07:27:17;;;;;;;;;;;10.50;99.90;;;;;;8360496;28;19956;-63
2021/10/06 07:31:18;;;;;;;;;;;10.50;99.90;;;;;;8359934;28;20011;-63
2021/10/06 07:35:18;;;;;;;;;;;10.60;99.90;;;;;;8379178;28;19974;-62
2021/10/06 07:39:19;;;;;;;;;;;10.70;99.90;;;;;;8381127;28;19913;-63
2021/10/06 07:43:19;;;;;;;;;;;10.90;99.90;;;;;;8383377;28;19919;-63
2021/10/06 07:47:20;;;;;;;;;;;11.10;99.90;;;;;;8393105;28;19916;-62
2021/10/06 07:51:20;;;;;;;;;;;11.20;99.90;;;;;;8388695;28;19916;-63
2021/10/06 07:55:22;;;;;;;;;;;11.10;99.90;;;;;;8380836;28;19916;-62
2021/10/06 07:59:23;;;;;;;;;;;11.10;99.90;;;;;;8360048;28;19999;-63
2021/10/06 08:03:23;;;;;;;;;;;11.30;99.90;;;;;;8367145;28;19920;-63
2021/10/06 08:07:24;;;;;;;;;;;11.30;99.90;;;;;;8381608;28;19919;-62
2021/10/06 08:11:24;;;;;;;;;;;11.20;99.90;;;;;;8426284;28;19912;-63
2021/10/06 08:15:25;;;;;;;;;;;11.20;99.90;;;;;;8388749;28;19972;-64
2021/10/06 08:19:25;;;;;;;;;;;11.20;99.90;;;;;;8369080;28;20344;-63
2021/10/06 08:23:28;;;;;;;;;;;11.40;99.90;;;;;;8377593;28;19917;-63
2021/10/06 08:27:28;;;;;;;;;;;11.40;99.90;;;;;;8374465;28;19920;-62
2021/10/06 08:31:29;;;;;;;;;;;11.50;99.90;;;;;;8374775;28;20489;-62
2021/10/06 08:35:30;;;;;;;;;;;11.80;99.90;;;;;;8375144;28;19948;-63
2021/10/06 08:39:30;;;;;;;;;;;12.30;99.90;;;;;;8368141;28;20394;-64
2021/10/06 08:43:31;;;;;;;;;;;12.40;99.90;;;;;;8359019;28;19909;-63
2021/10/06 08:47:33;;;;;;;;;;;12.20;99.90;;;;;;8358573;28;19917;-63
2021/10/06 08:51:34;;;;;;;;;;;12.10;99.90;;;;;;8358900;28;19913;-63
2021/10/06 08:55:35;;;;;;;;;;;12.30;99.90;;;;;;8358463;28;19924;-63
2021/10/06 08:59:35;;;;;;;;;;;12.40;99.90;;;;;;8388571;28;19913;-62
2021/10/06 09:03:36;;;;;;;;;;;12.30;99.90;;;;;;8365804;28;19951;-63
2021/10/06 09:07:56;;;;;;;;;;;12.50;99.90;;;;;;8388230;28;20613;-62
2021/10/06 09:11:58;;;;;;;;;;;12.90;99.90;;;;;;8365314;28;19916;-62
2021/10/06 09:15:59;;;;;;;;;;;13.10;99.90;;;;;;8378243;28;20325;-64
2021/10/06 09:20:00;;;;;;;;;;;12.90;99.90;;;;;;8396384;28;19909;-60
2021/10/06 09:24:00;;;;;;;;;;;12.70;99.90;;;;;;8392202;28;20430;-62
2021/10/06 09:28:00;;;;;;;;;;;12.80;99.90;;;;;;8364652;28;20367;-62
2021/10/06 09:32:01;;;;;;;;;;;12.80;99.90;;;;;;8429233;28;20326;-63
2021/10/06 09:36:09;;;;;;;;;;;13.10;99.90;;;;;;8421208;28;20403;-63
2021/10/06 09:40:10;;;;;;;;;;;13.10;99.90;;;;;;8389540;28;20047;-63
2021/10/06 09:44:11;;;;;;;;;;;13.10;99.90;;;;;;8366610;28;20376;-62
2021/10/06 09:48:12;;;;;;;;;;;13.20;99.90;;;;;;8373520;28;19917;-63
2021/10/06 09:52:20;;;;;;;;;;;13.30;99.90;;;;;;8363124;28;19928;-62
2021/10/06 09:56:20;;;;;;;;;;;13.30;99.90;;;;;;8363332;28;19913;-62
2021/10/06 10:00:21;;;;;;;;;;;13.20;99.90;;;;;;8363665;28;20583;-63
2021/10/06 10:04:23;;;;;;;;;;;13.50;99.90;;;;;;8363578;28;20200;-62
2021/10/06 10:08:24;;;;;;;;;;;13.60;99.90;;;;;;8363909;28;19909;-62
2021/10/06 10:12:25;;;;;;;;;;;13.40;99.90;;;;;;8363886;28;20398;-62
2021/10/06 10:16:26;;;;;;;;;;;13.30;99.90;;;;;;8363349;28;19909;-63
2021/10/06 10:20:28;;;;;;;;;;;13.50;99.90;;;;;;8390537;28;20286;-63
2021/10/06 10:24:28;;;;;;;;;;;13.50;99.90;;;;;;8396175;28;20329;-63
2021/10/06 10:28:39;;;;;;;;;;;13.50;99.90;;;;;;8396209;28;19908;-63
2021/10/06 10:32:44;;;;;;;;;;;13.90;99.90;;;;;;8394310;28;19916;-62
2021/10/06 10:36:45;;;;;;;;;;;14.10;99.90;;;;;;8395742;28;19916;-63
2021/10/06 10:40:45;;;;;;;;;;;14.20;99.90;;;;;;8394404;28;19908;-63
2021/10/06 10:44:46;;;;;;;;;;;14.20;99.90;;;;;;8393818;28;19908;-63
2021/10/06 10:49:01;;;;;;;;;;;13.90;99.90;;;;;;8395544;28;19967;-63
2021/10/06 10:53:02;;;;;;;;;;;13.70;99.90;;;;;;8395565;28;19912;-63
2021/10/06 10:57:04;;;;;;;;;;;13.50;99.90;;;;;;8394931;28;20067;-63
2021/10/06 11:01:06;;;;;;;;;;;13.50;99.90;;;;;;8395024;28;19909;-62
2021/10/06 11:05:08;;;;;;;;;;;12.80;99.90;;;;;;8394321;28;20371;-62
2021/10/06 11:09:28;;;;;;;;;;;12.50;99.90;;;;;;8394900;28;19997;-62
2021/10/06 11:13:34;;;;;;;;;;;12.30;99.90;;;;;;8394537;28;20345;-62
2021/10/06 11:17:35;;;;;;;;;;;12.90;99.90;;;;;;8394185;28;19912;-62
2021/10/06 11:21:37;;;;;;;;;;;13.70;99.90;;;;;;8386391;28;19927;-63
2021/10/06 11:25:40;;;;;;;;;;;14.90;99.90;;;;;;8365518;28;20325;-63
2021/10/06 11:29:46;;;;;;;;;;;15.50;99.90;;;;;;8360767;28;19909;-62
2021/10/06 11:33:47;;;;;;;;;;;16.40;99.90;;;;;;8361267;28;20003;-63
2021/10/06 11:37:47;;;;;;;;;;;17.70;99.90;;;;;;8360956;28;19919;-63
2021/10/06 11:41:49;;;;;;;;;;;17.60;99.90;;;;;;8360986;28;19912;-62
2021/10/06 11:45:50;;;;;;;;;;;17.30;99.90;;;;;;8360427;28;20343;-63
2021/10/06 11:49:50;;;;;;;;;;;17.70;99.90;;;;;;8383853;28;19909;-63
2021/10/06 11:53:51;;;;;;;;;;;18.40;99.90;;;;;;8385748;28;20279;-63
2021/10/06 11:57:51;;;;;;;;;;;18.50;99.90;;;;;;8393085;28;20282;-63
2021/10/06 12:01:59;;;;;;;;;;;18.70;99.90;;;;;;8392050;28;20271;-63
2021/10/06 12:06:00;;;;;;;;;;;19.20;99.90;;;;;;8392750;28;19947;-63
2021/10/06 12:10:02;;;;;;;;;;;20.70;98.90;;;;;;8392014;28;20374;-63
2021/10/06 12:14:17;;;;;;;;;;;22.00;97.60;;;;;;8386030;28;19916;-63
2021/10/06 12:18:17;;;;;;;;;;;21.50;92.40;;;;;;8362382;28;19909;-62
2021/10/06 12:22:18;;;;;;;;;;;22.60;91.00;;;;;;8388766;28;20293;-64
2021/10/06 12:26:20;;;;;;;;;;;25.30;74.70;;;;;;8392372;28;20314;-65
2021/10/06 12:30:22;;;;;;;;;;;24.80;74.10;;;;;;8392570;28;20382;-64
2021/10/06 12:34:24;;;;;;;;;;;26.20;66.70;;;;;;8391813;28;19913;-64
2021/10/06 12:38:37;;;;;;;;;;;25.40;63.00;;;;;;8380776;28;19928;-65
2021/10/06 12:42:37;;;;;;;;;;;23.80;66.30;;;;;;8381108;28;19947;-63
2021/10/06 12:46:40;;;;;;;;;;;23.70;68.60;;;;;;8373289;28;19920;-64
2021/10/06 12:50:41;;;;;;;;;;;22.30;71.10;;;;;;8368552;28;19947;-64
2021/10/06 12:54:41;;;;;;;;;;;21.50;75.80;;;;;;8373764;28;20418;-64
2021/10/06 12:58:58;;;;;;;;;;;20.80;77.30;;;;;;8374454;28;20061;-64
2021/10/06 13:02:58;;;;;;;;;;;18.90;86.60;;;;;;8371741;28;19912;-67
2021/10/06 13:06:59;;;;;;;;;;;22.70;75.70;;;;;;8381521;28;19919;-65
2021/10/06 13:11:00;;;;;;;;;;;25.10;66.10;;;;;;8375038;28;20007;-65
2021/10/06 13:15:00;;;;;;;;;;;24.10;66.50;;;;;;8389405;28;19913;-66
2021/10/06 13:19:00;;;;;;;;;;;23.40;67.50;;;;;;8391566;28;19967;-65
2021/10/06 13:23:01;;;;;;;;;;;20.60;75.30;;;;;;8392132;28;19916;-65
2021/10/06 13:27:02;;;;;;;;;;;18.00;83.60;;;;;;8363196;28;19951;-65
2021/10/06 13:31:06;;;;;;;;;;;16.40;91.20;;;;;;8358643;28;20383;-66
2021/10/06 13:35:07;;;;;;;;;;;15.70;93.40;;;;;;8356967;28;20390;-66
2021/10/06 13:39:08;;;;;;;;;;;15.00;96.50;;;;;;8361170;28;19912;-66
2021/10/06 13:43:08;;;;;;;;;;;14.20;99.90;;;;;;8358805;28;19915;-65
2021/10/06 13:47:09;;;;;;;;;;;13.80;99.90;;;;;;8358320;28;20367;-65
2021/10/06 13:51:10;;;;;;;;;;;13.60;99.90;;;;;;8362114;28;19917;-63
2021/10/06 13:55:10;;;;;;;;;;;13.30;99.90;;;;;;8370402;28;19920;-64
2021/10/06 13:59:11;;;;;;;;;;;12.80;99.90;;;;;;8365783;28;20058;-63
2021/10/06 14:03:11;;;;;;;;;;;12.50;99.90;;;;;;8395239;28;20363;-63
2021/10/06 14:07:12;;;;;;;;;;;12.20;99.90;;;;;;8396275;28;20382;-62
2021/10/06 14:11:12;;;;;;;;;;;12.00;99.90;;;;;;8377727;28;20387;-63
2021/10/06 14:15:13;;;;;;;;;;;11.90;99.90;;;;;;8360939;28;19909;-63
2021/10/06 14:19:13;;;;;;;;;;;11.70;99.90;;;;;;8375145;28;19940;-63
2021/10/06 14:23:13;;;;;;;;;;;11.60;99.90;;;;;;8361748;28;20333;-63
2021/10/06 14:27:14;;;;;;;;;;;12.10;99.90;;;;;;8379401;28;19912;-62
2021/10/06 14:31:14;;;;;;;;;;;13.40;99.90;;;;;;8392424;28;20282;-63
2021/10/06 14:35:15;;;;;;;;;;;14.50;99.90;;;;;;8392578;28;19993;-63
2021/10/06 14:39:16;;;;;;;;;;;14.80;99.90;;;;;;8361912;28;19983;-63
2021/10/06 14:43:16;;;;;;;;;;;15.00;99.90;;;;;;8361167;28;19916;-63
2021/10/06 14:47:17;;;;;;;;;;;15.00;99.90;;;;;;8362084;28;19956;-63
2021/10/06 14:51:18;;;;;;;;;;;14.90;99.90;;;;;;8378043;28;19918;-64
2021/10/06 14:55:18;;;;;;;;;;;14.70;99.90;;;;;;8370219;28;19913;-64
2021/10/06 14:59:20;;;;;;;;;;;14.70;99.90;;;;;;8361819;28;19955;-63
2021/10/06 15:03:21;;;;;;;;;;;14.60;99.90;;;;;;8364098;28;19913;-64
2021/10/06 15:07:21;;;;;;;;;;;14.50;99.90;;;;;;8365955;28;20357;-64
2021/10/06 15:11:25;;;;;;;;;;;14.60;99.90;;;;;;8387987;28;19920;-64
2021/10/06 15:15:25;;;;;;;;;;;14.20;99.90;;;;;;8393243;28;20328;-64
2021/10/06 15:19:27;;;;;;;;;;;14.00;99.90;;;;;;8378604;28;19927;-63
2021/10/06 15:23:27;;;;;;;;;;;14.00;99.90;;;;;;8377000;28;19970;-64
2021/10/06 15:27:28;;;;;;;;;;;13.40;99.90;;;;;;8361955;28;19913;-64
2021/10/06 15:31:29;;;;;;;;;;;13.10;99.90;;;;;;8361014;28;19913;-63
2021/10/06 15:35:29;;;;;;;;;;;12.90;99.90;;;;;;8385263;28;19912;-64
2021/10/06 15:39:30;;;;;;;;;;;12.80;99.90;;;;;;8368110;28;19920;-64
2021/10/06 15:43:31;;;;;;;;;;;12.90;99.90;;;;;;8383714;28;19967;-63
2021/10/06 15:47:31;;;;;;;;;;;13.20;99.90;;;;;;8393293;28;19909;-64
2021/10/06 15:51:32;;;;;;;;;;;13.40;99.90;;;;;;8393778;28;19917;-64
2021/10/06 15:55:32;;;;;;;;;;;13.40;99.90;;;;;;8367407;28;20039;-64
2021/10/06 15:59:36;;;;;;;;;;;13.10;99.90;;;;;;8384758;28;20334;-64
2021/10/06 16:03:36;;;;;;;;;;;13.00;99.90;;;;;;8393065;28;20409;-63
2021/10/06 16:07:37;;;;;;;;;;;12.80;99.90;;;;;;8380297;28;20003;-65
2021/10/06 16:11:38;;;;;;;;;;;12.50;99.90;;;;;;8379482;28;20367;-63
2021/10/06 16:15:39;;;;;;;;;;;12.10;99.90;;;;;;8360828;28;19913;-63
2021/10/06 16:19:40;;;;;;;;;;;11.90;99.90;;;;;;8358541;28;19959;-64
2021/10/06 16:23:41;;;;;;;;;;;11.80;99.90;;;;;;8359625;28;20397;-62
2021/10/06 16:27:42;;;;;;;;;;;11.60;99.90;;;;;;8386756;28;20003;-63
2021/10/06 16:31:43;;;;;;;;;;;11.30;99.90;;;;;;8363114;28;19920;-63
2021/10/06 16:35:43;;;;;;;;;;;11.10;99.90;;;;;;8379077;28;19916;-64
2021/10/06 16:39:44;;;;;;;;;;;11.00;99.90;;;;;;8385827;28;19963;-63
2021/10/06 16:43:44;;;;;;;;;;;10.90;99.90;;;;;;8369886;28;19934;-63
2021/10/06 16:47:45;;;;;;;;;;;10.70;99.90;;;;;;8375215;28;19919;-63
2021/10/06 16:51:45;;;;;;;;;;;10.60;99.90;;;;;;8357935;28;19920;-64
2021/10/06 16:55:46;;;;;;;;;;;10.40;99.90;;;;;;8363929;28;19958;-65
2021/10/06 16:59:47;;;;;;;;;;;10.30;99.90;;;;;;8383710;28;19919;-64
2021/10/06 17:03:47;;;;;;;;;;;10.10;99.90;;;;;;8379844;28;19955;-64
2021/10/06 17:07:48;;;;;;;;;;;10.00;99.90;;;;;;8356594;28;19909;-63
2021/10/06 17:11:48;;;;;;;;;;;9.90;99.90;;;;;;8369132;28;19931;-63
2021/10/06 17:15:49;;;;;;;;;;;9.90;99.90;;;;;;8379531;28;19955;-63
2021/10/06 17:19:50;;;;;;;;;;;9.80;99.90;;;;;;8378618;28;19996;-64
2021/10/06 17:23:50;;;;;;;;;;;9.80;99.90;;;;;;8366796;28;20149;-63
2021/10/06 17:27:50;;;;;;;;;;;9.70;99.90;;;;;;8388784;28;19919;-63
2021/10/06 17:31:51;;;;;;;;;;;9.60;99.90;;;;;;8394832;28;19948;-63
2021/10/06 17:35:51;;;;;;;;;;;9.60;99.90;;;;;;8397017;28;19913;-63
2021/10/06 17:39:52;;;;;;;;;;;9.50;99.90;;;;;;8397949;28;19912;-63
2021/10/06 17:43:52;;;;;;;;;;;9.50;99.90;;;;;;8392710;28;19927;-63
2021/10/06 17:47:53;;;;;;;;;;;9.50;99.90;;;;;;8396891;28;19909;-63
2021/10/06 17:51:54;;;;;;;;;;;9.50;99.90;;;;;;8391388;28;19923;-63
2021/10/06 17:55:54;;;;;;;;;;;9.50;99.90;;;;;;8397145;28;20289;-63
2021/10/06 17:59:55;;;;;;;;;;;9.40;99.90;;;;;;8393807;28;19912;-63
2021/10/06 18:03:55;;;;;;;;;;;9.40;99.90;;;;;;8397007;28;19919;-63
2021/10/06 18:07:57;;;;;;;;;;;9.30;99.90;;;;;;8396707;28;20404;-63
2021/10/06 18:11:57;;;;;;;;;;;9.50;99.90;;;;;;8396894;28;19912;-63
2021/10/06 18:15:57;;;;;;;;;;;9.40;99.90;;;;;;8393375;28;19920;-63
2021/10/06 18:19:58;;;;;;;;;;;9.40;99.90;;;;;;8377677;28;19953;-63
2021/10/06 18:23:58;;;;;;;;;;;9.40;99.90;;;;;;8377588;28;19932;-63
2021/10/06 18:27:59;;;;;;;;;;;9.50;99.90;;;;;;8370872;28;20346;-63
2021/10/06 18:32:00;;;;;;;;;;;9.60;99.90;;;;;;8360235;28;19924;-63
2021/10/06 18:36:02;;;;;;;;;;;9.50;99.90;;;;;;8378534;28;19912;-63
2021/10/06 18:40:03;;;;;;;;;;;9.60;99.90;;;;;;8392633;28;19916;-63
2021/10/06 18:44:04;;;;;;;;;;;9.60;99.90;;;;;;8393095;28;19915;-63
2021/10/06 18:48:04;;;;;;;;;;;9.60;99.90;;;;;;8392767;28;19962;-63
2021/10/06 18:52:05;;;;;;;;;;;9.70;99.90;;;;;;8379224;28;19924;-63
2021/10/06 18:56:06;;;;;;;;;;;9.70;99.90;;;;;;8388448;28;19908;-63
2021/10/06 19:00:08;;;;;;;;;;;9.60;99.90;;;;;;8389087;28;20004;-63
2021/10/06 19:04:09;;;;;;;;;;;9.60;99.90;;;;;;8390946;28;20375;-63
2021/10/06 19:08:10;;;;;;;;;;;9.50;99.90;;;;;;8392332;28;19920;-63
2021/10/06 19:12:10;;;;;;;;;;;9.50;99.90;;;;;;8375159;28;19917;-63
2021/10/06 19:16:11;;;;;;;;;;;9.60;99.90;;;;;;8358181;28;19912;-63
2021/10/06 19:20:11;;;;;;;;;;;9.60;99.90;;;;;;8367027;28;19916;-63
2021/10/06 19:24:13;;;;;;;;;;;9.70;99.90;;;;;;8388460;28;19928;-63
2021/10/06 19:28:14;;;;;;;;;;;9.60;99.90;;;;;;8382257;28;19981;-63
2021/10/06 19:32:14;;;;;;;;;;;9.60;99.90;;;;;;8362974;28;19927;-63
2021/10/06 19:36:19;;;;;;;;;;;9.40;99.90;;;;;;8383125;28;19912;-63
2021/10/06 19:40:19;;;;;;;;;;;9.50;99.90;;;;;;8387133;28;19940;-63
2021/10/06 19:44:22;;;;;;;;;;;9.50;99.90;;;;;;8369650;28;19923;-63
2021/10/06 19:48:22;;;;;;;;;;;9.50;99.90;;;;;;8358124;28;20311;-63
2021/10/06 19:52:23;;;;;;;;;;;9.60;99.90;;;;;;8367998;28;19923;-63
2021/10/06 19:56:23;;;;;;;;;;;9.50;99.90;;;;;;8371968;28;19999;-63
2021/10/06 20:00:24;;;;;;;;;;;9.50;99.90;;;;;;8373223;28;20306;-63
2021/10/06 20:04:25;;;;;;;;;;;9.50;99.90;;;;;;8369424;28;19924;-63
2021/10/06 20:08:26;;;;;;;;;;;9.60;99.90;;;;;;8374232;28;19916;-63
2021/10/06 20:12:26;;;;;;;;;;;9.60;99.90;;;;;;8370932;28;19917;-63
2021/10/06 20:16:27;;;;;;;;;;;9.60;99.90;;;;;;8356908;28;19908;-63
2021/10/06 20:20:27;;;;;;;;;;;9.60;99.90;;;;;;8370776;28;19920;-63
2021/10/06 20:24:28;;;;;;;;;;;9.70;99.90;;;;;;8374799;28;19958;-63
2021/10/06 20:28:29;;;;;;;;;;;9.70;99.90;;;;;;8375391;28;19999;-63
2021/10/06 20:32:30;;;;;;;;;;;9.60;99.90;;;;;;8374912;28;19912;-63
2021/10/06 20:40:47;;;;;;;;;;;9.60;99.90;;;;;;8366833;28;20366;-63
2021/10/06 20:44:47;;;;;;;;;;;9.60;99.90;;;;;;8358292;28;19983;-64
2021/10/06 20:48:49;;;;;;;;;;;9.60;99.90;;;;;;8357738;28;20346;-63
2021/10/06 20:52:51;;;;;;;;;;;9.40;99.90;;;;;;8358976;28;19912;-63
2021/10/06 20:56:55;;;;;;;;;;;9.50;99.90;;;;;;8358748;28;20054;-63
2021/10/06 21:00:57;;;;;;;;;;;9.50;99.90;;;;;;8357351;28;20287;-63
2021/10/06 21:04:58;;;;;;;;;;;9.50;99.90;;;;;;8364829;28;19909;-63
2021/10/06 21:08:58;;;;;;;;;;;9.40;99.90;;;;;;8364532;28;19909;-63
2021/10/06 21:13:00;;;;;;;;;;;9.30;99.90;;;;;;8365817;28;19944;-63
2021/10/06 21:17:00;;;;;;;;;;;9.40;99.90;;;;;;8364456;28;19915;-63
2021/10/06 21:21:01;;;;;;;;;;;9.40;99.90;;;;;;8397865;28;19959;-63
2021/10/06 21:25:02;;;;;;;;;;;9.60;99.90;;;;;;8397913;28;19919;-63
2021/10/06 21:29:03;;;;;;;;;;;9.50;99.90;;;;;;8397875;28;20451;-63
2021/10/06 21:33:03;;;;;;;;;;;9.50;99.90;;;;;;8396211;28;19925;-63
2021/10/06 21:37:04;;;;;;;;;;;9.40;99.90;;;;;;8397513;28;19908;-63
2021/10/06 21:41:04;;;;;;;;;;;9.40;99.90;;;;;;8397634;28;19908;-63
2021/10/06 21:45:05;;;;;;;;;;;9.40;99.90;;;;;;8396594;28;19991;-63
2021/10/06 21:49:05;;;;;;;;;;;9.40;99.90;;;;;;8397600;28;19909;-63
2021/10/06 21:53:06;;;;;;;;;;;9.40;99.90;;;;;;8396313;28;19916;-63
2021/10/06 21:57:07;;;;;;;;;;;9.50;99.90;;;;;;8396422;28;19908;-63
2021/10/06 22:01:07;;;;;;;;;;;9.50;99.90;;;;;;8397291;28;20381;-63
2021/10/06 22:05:08;;;;;;;;;;;9.50;99.90;;;;;;8396723;28;19916;-63
2021/10/06 22:09:08;;;;;;;;;;;9.50;99.90;;;;;;8395665;28;20002;-63
2021/10/06 22:13:09;;;;;;;;;;;9.60;99.90;;;;;;8395667;28;20481;-63
2021/10/06 22:17:09;;;;;;;;;;;9.50;99.90;;;;;;8396016;28;19908;-63
2021/10/06 22:21:10;;;;;;;;;;;9.50;99.90;;;;;;8394734;28;19965;-63
2021/10/06 22:25:10;;;;;;;;;;;9.70;99.90;;;;;;8396197;28;19908;-63
2021/10/06 22:29:11;;;;;;;;;;;9.60;99.90;;;;;;8395169;28;19908;-63
2021/10/06 22:33:12;;;;;;;;;;;9.60;99.90;;;;;;8396242;28;19919;-63
2021/10/06 22:37:12;;;;;;;;;;;9.60;99.90;;;;;;8394239;28;19928;-63
2021/10/06 22:41:13;;;;;;;;;;;9.60;99.90;;;;;;8395935;28;19955;-63
2021/10/06 22:45:14;;;;;;;;;;;9.70;99.90;;;;;;8394709;28;20410;-63
2021/10/06 22:49:15;;;;;;;;;;;9.60;99.90;;;;;;8395620;28;19909;-63
2021/10/06 22:53:15;;;;;;;;;;;9.60;99.90;;;;;;8394162;28;19919;-63
2021/10/06 22:57:16;;;;;;;;;;;9.70;99.90;;;;;;8394544;28;19909;-63
2021/10/06 23:01:16;;;;;;;;;;;9.70;99.90;;;;;;8393660;28;19912;-63
2021/10/06 23:05:17;;;;;;;;;;;9.60;99.90;;;;;;8394722;28;20337;-63
2021/10/06 23:09:18;;;;;;;;;;;9.60;99.90;;;;;;8395424;28;19915;-63
2021/10/06 23:13:18;;;;;;;;;;;9.60;99.90;;;;;;8393664;28;19913;-63
2021/10/06 23:17:19;;;;;;;;;;;9.60;99.90;;;;;;8394001;28;19916;-63
2021/10/06 23:21:20;;;;;;;;;;;9.60;99.90;;;;;;8394202;28;19916;-63
2021/10/06 23:25:20;;;;;;;;;;;9.50;99.90;;;;;;8393825;28;19909;-63
2021/10/06 23:29:21;;;;;;;;;;;9.50;99.90;;;;;;8394249;28;19962;-63
2021/10/06 23:33:21;;;;;;;;;;;9.50;99.90;;;;;;8392537;28;19927;-63
2021/10/06 23:37:22;;;;;;;;;;;9.40;99.90;;;;;;8393868;28;19940;-63